Meteo Giornale » Osservazioni meteo Stati Uniti (USA) » Pueblo Memorial
ore: 22:53 - Osservazioni Meteo Pueblo Memorial
Lat. 38° 17' N Lon. 104° 29' W Alt. 1440 metri s.l.m.
21 °C
Sereno
Temp. 24 Ore
15 °C
30 °C
Est
9.3 Km/h
Dew point 12 °C
Umidità 56 %
Visibilità 10 Km
Il sole sorge alle ore 06:26
Il sole tramonta alle ore 19:29
| Data e Ora | Cielo e Fenomeni | T °C | DP °C | Um. % | Pres. hPa | Vis. km | Vento km/h | |
|---|---|---|---|---|---|---|---|---|
| Oggi h: 22:53 | Sereno | 21 | 12 | 56 | 1020 | 10 | E 9.3 | |
| Oggi h: 21:53 | Sereno | 21 | 12 | 56 | 1020 | 10 | N 5.5 | |
| Oggi h: 20:53 | Molto Nuvoloso | 22 | 12 | 53 | 1020 | 10 | S/SO 9.3 | |
| Oggi h: 19:53 | Molto Nuvoloso | 22 | 13 | 56 | 1018 | 10 | N 0 | |
| Oggi h: 18:53 | Sereno | 23 | 13 | 53 | 1018 | 10 | SE 18.5 | |
| Oggi h: 18:35 | Sereno | 24 | 14 | 53 | 1018 | 10 | SE 25.9 | |
| Oggi h: 17:53 | Poco Nuvoloso | 27 | 11 | 36 | 1018 | 10 | S 7.4 | |
| Oggi h: 16:53 | Poco Nuvoloso | 26 | 11 | 39 | 1018 | 10 | S/SO 9.3 | |
| Oggi h: 15:53 | Sereno | 29 | 8 | 26 | 1018 | 10 | SE 13 | |
| Oggi h: 14:53 | Sereno | 30 | 10 | 28 | 1019 | 10 | S 11.1 | |
| Oggi h: 13:53 | Sereno | 30 | 9 | 27 | 1019 | 10 | S 7.4 | |
| Oggi h: 12:53 | Poco Nuvoloso | 28 | 10 | 32 | 1020 | 10 | N 5.5 | |
| Oggi h: 11:53 | Sereno | 27 | 9 | 32 | 1021 | 10 | S/SO 7.4 | |
| Oggi h: 10:53 | Molto Nuvoloso | 26 | 11 | 39 | 1021 | 10 | O 9.3 | |
| Oggi h: 09:53 | Poco Nuvoloso | 23 | 11 | 46 | 1021 | 10 | O 11.1 | |
| Oggi h: 08:53 | Sereno | 21 | 12 | 56 | 1021 | 10 | N 0 | |
| Oggi h: 07:53 | Sereno | 18 | 12 | 67 | 1021 | 10 | O/SO 11.1 | |
| Oggi h: 06:53 | Sereno | 16 | 11 | 72 | 1020 | 10 | SO 9.3 | |
| Oggi h: 05:53 | Sereno | 15 | 11 | 76 | 1020 | 10 | N 0 | |
| Oggi h: 04:53 | Sereno | 16 | 11 | 72 | 1020 | 10 | N 0 | |
| Oggi h: 03:53 | Sereno | 16 | 11 | 72 | 1020 | 10 | E/NE 11.1 | |
| Oggi h: 02:53 | Sereno | 17 | 11 | 67 | 1019 | 10 | S/SE 9.3 | |
| Oggi h: 01:53 | Sereno | 20 | 11 | 56 | 1019 | 10 | O/NO 11.1 | |
| Oggi h: 00:53 | Nuvoloso | 19 | 11 | 59 | 1020 | 10 | O/NO 11.1 | |
| Ieri h: 23:53 | Sereno | 21 | 11 | 52 | 1021 | 10 | NO 14.8 | |



